createdAt,value
2023-03-25T00:00:20.786Z,4.37
2023-03-25T00:02:52.578Z,4.55
2023-03-25T00:05:20.818Z,4.75
2023-03-25T00:07:50.614Z,4.00
2023-03-25T00:10:18.261Z,4.10
2023-03-25T00:12:45.705Z,4.30
2023-03-25T00:15:13.669Z,4.12
2023-03-25T00:17:42.500Z,4.05
2023-03-25T00:20:10.322Z,4.57
2023-03-25T00:22:41.303Z,3.78
2023-03-25T00:25:17.575Z,4.45
2023-03-25T00:27:46.889Z,4.10
2023-03-25T00:30:15.708Z,4.05
2023-03-25T00:32:45.999Z,4.05
2023-03-25T00:35:19.796Z,4.18
2023-03-25T00:37:57.287Z,4.32
2023-03-25T00:40:25.906Z,3.70
2023-03-25T00:42:53.380Z,4.18
2023-03-25T00:45:20.822Z,4.12
2023-03-25T00:47:48.644Z,3.95
2023-03-25T00:50:16.152Z,4.37
2023-03-25T00:52:43.619Z,3.67
2023-03-25T00:55:11.474Z,3.95
2023-03-25T00:57:38.963Z,3.95
2023-03-25T01:00:08.527Z,4.00
2023-03-25T01:02:36.482Z,3.67
2023-03-25T01:05:04.631Z,4.05
2023-03-25T01:07:32.416Z,4.05
2023-03-25T01:10:00.251Z,3.92
2023-03-25T01:12:28.045Z,4.15
2023-03-25T01:14:55.562Z,3.50
2023-03-25T01:17:23.359Z,4.00
2023-03-25T01:19:51.243Z,3.80
2023-03-25T01:22:18.747Z,3.62
2023-03-25T01:24:46.566Z,3.80
2023-03-25T01:27:14.186Z,4.07
2023-03-25T01:29:41.726Z,3.55
2023-03-25T01:32:09.425Z,3.72
2023-03-25T01:34:38.724Z,3.28
2023-03-25T01:37:06.486Z,3.80
2023-03-25T01:39:34.428Z,3.62
2023-03-25T01:42:01.896Z,3.95
2023-03-25T01:44:29.279Z,3.60
2023-03-25T01:46:58.664Z,3.83
2023-03-25T01:49:30.353Z,3.75
2023-03-25T01:52:29.793Z,3.72
2023-03-25T01:54:57.355Z,3.60
2023-03-25T01:57:25.922Z,4.12
2023-03-25T01:59:54.083Z,3.67
2023-03-25T02:02:21.565Z,3.62
2023-03-25T02:04:59.205Z,3.37
2023-03-25T02:07:32.682Z,3.87
2023-03-25T02:10:02.356Z,3.60
2023-03-25T02:12:30.364Z,3.65
2023-03-25T02:14:58.020Z,3.60
2023-03-25T02:17:50.441Z,3.83
2023-03-25T02:20:42.739Z,3.80
2023-03-25T02:23:48.361Z,3.78
2023-03-25T02:26:42.503Z,3.70
2023-03-25T02:29:28.980Z,3.35
2023-03-25T02:32:18.562Z,3.30
2023-03-25T02:35:02.268Z,3.67
2023-03-25T02:37:53.357Z,3.55
2023-03-25T02:40:32.268Z,3.67
2023-03-25T02:43:26.822Z,3.70
2023-03-25T02:45:56.208Z,3.78
2023-03-25T02:48:27.731Z,3.25
2023-03-25T02:50:56.376Z,3.78
2023-03-25T02:53:30.487Z,3.97
2023-03-25T02:56:05.154Z,3.33
2023-03-25T02:58:33.018Z,3.80
2023-03-25T03:01:00.555Z,3.47
2023-03-25T03:03:28.284Z,3.47
2023-03-25T03:05:59.306Z,3.67
2023-03-25T03:08:51.747Z,3.28
2023-03-25T03:11:41.204Z,3.42
2023-03-25T03:14:14.572Z,3.20
2023-03-25T03:17:04.110Z,3.97
2023-03-25T03:19:55.636Z,3.47
2023-03-25T03:22:43.464Z,3.55
2023-03-25T03:25:23.033Z,3.42
2023-03-25T03:28:24.730Z,3.35
2023-03-25T03:31:09.392Z,3.72
2023-03-25T03:33:39.109Z,3.70
2023-03-25T03:36:15.324Z,3.55
2023-03-25T03:38:50.698Z,3.12
2023-03-25T03:41:22.122Z,3.35
2023-03-25T03:44:19.983Z,3.22
2023-03-25T03:47:07.557Z,3.30
2023-03-25T03:49:55.694Z,3.20
2023-03-25T03:52:30.480Z,3.10
2023-03-25T03:54:59.399Z,3.30
2023-03-25T03:57:30.160Z,3.60
2023-03-25T04:00:06.808Z,2.90
2023-03-25T04:02:48.885Z,3.25
2023-03-25T04:05:17.851Z,3.20
2023-03-25T04:07:57.011Z,3.67
2023-03-25T04:10:39.430Z,3.50
2023-03-25T04:13:10.729Z,2.90
2023-03-25T04:15:38.473Z,3.08
2023-03-25T04:18:05.894Z,3.15
2023-03-25T04:20:36.765Z,3.05
2023-03-25T04:23:09.912Z,2.90
2023-03-25T04:25:37.409Z,3.12
2023-03-25T04:28:05.652Z,3.15
2023-03-25T04:30:33.077Z,3.03
2023-03-25T04:33:01.235Z,3.50
2023-03-25T04:35:28.968Z,2.90
2023-03-25T04:37:57.502Z,3.35
2023-03-25T04:40:25.921Z,3.35
2023-03-25T04:42:53.716Z,2.95
2023-03-25T04:45:21.730Z,3.10
2023-03-25T04:47:49.466Z,3.20
2023-03-25T04:50:24.379Z,3.30
2023-03-25T04:52:53.060Z,3.10
2023-03-25T04:55:21.494Z,3.40
2023-03-25T04:57:50.779Z,2.85
2023-03-25T05:00:22.762Z,3.28
2023-03-25T05:02:54.581Z,3.05
2023-03-25T05:05:23.585Z,3.30
2023-03-25T05:07:53.228Z,3.20
2023-03-25T05:10:22.208Z,3.30
2023-03-25T05:12:49.779Z,2.90
2023-03-25T05:15:17.571Z,3.10
2023-03-25T05:17:45.363Z,2.90
2023-03-25T05:20:13.641Z,3.15
2023-03-25T05:22:42.097Z,2.90
2023-03-25T05:25:10.067Z,2.90
2023-03-25T05:27:37.829Z,2.90
2023-03-25T05:30:06.788Z,3.15
2023-03-25T05:32:34.306Z,2.60
2023-03-25T05:35:02.583Z,3.20
2023-03-25T05:37:30.801Z,3.30
2023-03-25T05:39:58.329Z,2.78
2023-03-25T05:42:25.848Z,3.10
2023-03-25T05:44:53.737Z,3.08
2023-03-25T05:47:23.375Z,2.78
2023-03-25T05:49:51.918Z,2.78
2023-03-25T05:52:19.990Z,2.80
2023-03-25T05:54:51.800Z,2.87
2023-03-25T05:57:19.285Z,3.45
2023-03-25T05:59:48.045Z,2.80
2023-03-25T06:02:16.086Z,3.03
2023-03-25T06:04:43.921Z,2.92
2023-03-25T06:07:19.712Z,3.10
2023-03-25T06:09:47.961Z,3.20
2023-03-25T06:12:16.754Z,2.80
2023-03-25T06:14:45.916Z,2.70
2023-03-25T06:17:15.417Z,3.08
2023-03-25T06:19:42.853Z,2.83
2023-03-25T06:22:11.079Z,2.70
2023-03-25T06:24:39.175Z,2.90
2023-03-25T06:27:16.458Z,2.70
2023-03-25T06:29:44.268Z,2.70
2023-03-25T06:32:12.542Z,3.10
2023-03-25T06:34:42.510Z,3.05
2023-03-25T06:37:10.492Z,2.92
2023-03-25T06:39:38.173Z,3.10
2023-03-25T06:42:07.364Z,2.42
2023-03-25T06:44:36.296Z,2.97
2023-03-25T06:47:06.668Z,2.80
2023-03-25T06:49:34.865Z,2.72
2023-03-25T06:52:02.309Z,2.65
2023-03-25T06:54:29.770Z,2.65
2023-03-25T06:56:57.946Z,2.45
2023-03-25T06:59:25.558Z,2.85
2023-03-25T07:01:53.085Z,2.55
2023-03-25T07:04:24.076Z,2.60
2023-03-25T07:06:52.023Z,2.72
2023-03-25T07:09:19.481Z,3.00
2023-03-25T07:11:47.398Z,3.22
2023-03-25T07:14:14.942Z,2.65
2023-03-25T07:16:42.483Z,2.60
2023-03-25T07:19:10.443Z,2.47
2023-03-25T07:21:37.897Z,2.80
2023-03-25T07:24:05.628Z,2.87
2023-03-25T07:26:33.361Z,2.47
2023-03-25T07:29:00.784Z,2.67
2023-03-25T07:31:28.275Z,2.50
2023-03-25T07:33:56.118Z,3.00
2023-03-25T07:36:25.267Z,2.72
2023-03-25T07:38:54.816Z,2.65
2023-03-25T07:41:24.297Z,2.60
2023-03-25T07:43:52.574Z,2.53
2023-03-25T07:46:20.461Z,2.45
2023-03-25T07:48:48.264Z,2.70
2023-03-25T07:51:15.832Z,2.83
2023-03-25T07:53:45.228Z,2.80
2023-03-25T07:56:13.255Z,2.58
2023-03-25T07:58:42.003Z,2.53
2023-03-25T08:01:09.541Z,2.42
2023-03-25T08:03:39.857Z,2.70
2023-03-25T08:06:08.043Z,2.80
2023-03-25T08:08:35.755Z,2.47
2023-03-25T08:11:03.477Z,2.83
2023-03-25T08:13:31.056Z,2.50
2023-03-25T08:15:58.534Z,2.45
2023-03-25T08:18:31.638Z,2.40
2023-03-25T08:20:59.112Z,2.50
2023-03-25T08:23:26.908Z,3.08
2023-03-25T08:25:54.689Z,2.90
2023-03-25T08:28:23.042Z,3.10
2023-03-25T08:30:55.002Z,3.55
2023-03-25T08:33:27.629Z,2.95
2023-03-25T08:35:57.330Z,2.17
2023-03-25T08:38:25.492Z,2.33
2023-03-25T08:40:53.035Z,2.62
2023-03-25T08:43:20.775Z,2.72
2023-03-25T08:45:48.326Z,2.33
2023-03-25T08:48:15.897Z,2.17
2023-03-25T08:50:43.689Z,2.72
2023-03-25T08:53:11.148Z,2.10
2023-03-25T08:55:38.587Z,2.70
2023-03-25T08:58:08.138Z,2.42
2023-03-25T09:00:37.673Z,2.50
2023-03-25T09:03:05.292Z,3.17
2023-03-25T09:05:33.114Z,2.50
2023-03-25T09:08:00.857Z,2.75
2023-03-25T09:10:28.305Z,2.45
2023-03-25T09:12:56.283Z,2.60
2023-03-25T09:15:23.863Z,2.47
2023-03-25T09:17:51.316Z,2.12
2023-03-25T09:20:19.022Z,2.25
2023-03-25T09:22:46.503Z,2.33
2023-03-25T09:25:14.142Z,2.58
2023-03-25T09:27:41.923Z,2.55
2023-03-25T09:30:09.619Z,2.70
2023-03-25T09:32:37.155Z,2.10
2023-03-25T09:35:05.224Z,2.30
2023-03-25T09:37:32.644Z,2.42
2023-03-25T09:40:00.128Z,2.58
2023-03-25T09:43:01.483Z,2.60
2023-03-25T09:45:41.103Z,2.37
2023-03-25T09:48:30.756Z,2.30
2023-03-25T09:51:00.335Z,2.55
2023-03-25T09:53:40.616Z,2.35
2023-03-25T09:56:11.914Z,2.60
2023-03-25T09:58:46.690Z,2.00
2023-03-25T10:01:27.209Z,2.20
2023-03-25T10:04:02.645Z,2.17
2023-03-25T10:06:31.340Z,2.12
2023-03-25T10:09:14.199Z,2.50
2023-03-25T10:11:44.527Z,2.05
2023-03-25T10:14:18.475Z,2.33
2023-03-25T10:17:16.461Z,2.30
2023-03-25T10:20:02.095Z,1.87
2023-03-25T10:22:32.485Z,2.28
2023-03-25T10:25:01.266Z,2.12
2023-03-25T10:27:35.995Z,2.03
2023-03-25T10:30:09.831Z,1.83
2023-03-25T10:32:39.161Z,1.83
2023-03-25T10:35:11.574Z,2.05
2023-03-25T10:37:42.063Z,2.03
2023-03-25T10:40:27.442Z,2.00
2023-03-25T10:43:30.324Z,1.98
2023-03-25T10:46:08.138Z,2.65
2023-03-25T10:48:35.774Z,2.20
2023-03-25T10:51:14.679Z,2.20
2023-03-25T10:53:42.124Z,2.35
2023-03-25T10:56:15.459Z,1.67
2023-03-25T10:58:43.946Z,2.25
2023-03-25T11:01:17.895Z,2.37
2023-03-25T11:03:46.308Z,2.12
2023-03-25T11:06:26.639Z,2.03
2023-03-25T11:09:23.596Z,2.80
2023-03-25T11:11:52.403Z,2.10
2023-03-25T11:14:22.977Z,2.33
2023-03-25T11:17:15.389Z,2.62
2023-03-25T11:19:50.312Z,1.90
2023-03-25T11:22:28.907Z,2.10
2023-03-25T11:25:21.323Z,2.20
2023-03-25T11:27:54.408Z,2.22
2023-03-25T11:30:22.879Z,2.12
2023-03-25T11:33:14.711Z,1.92
2023-03-25T11:35:44.184Z,1.90
2023-03-25T11:38:23.164Z,2.37
2023-03-25T11:40:55.089Z,1.77
2023-03-25T11:43:23.873Z,1.90
2023-03-25T11:45:51.697Z,1.73
2023-03-25T11:48:20.968Z,2.17
2023-03-25T11:50:56.196Z,2.25
2023-03-25T11:53:25.302Z,1.50
2023-03-25T11:55:59.098Z,1.55
2023-03-25T11:58:29.033Z,1.62
2023-03-25T12:01:27.744Z,1.40
2023-03-25T12:04:11.700Z,1.90
2023-03-25T12:06:52.829Z,1.70
2023-03-25T12:09:20.596Z,1.45
2023-03-25T12:11:56.908Z,1.60
2023-03-25T12:14:40.803Z,1.98
2023-03-25T12:17:16.876Z,1.50
2023-03-25T12:20:23.648Z,1.42
2023-03-25T12:23:00.138Z,2.00
2023-03-25T12:25:39.618Z,1.73
2023-03-25T12:28:25.600Z,1.97
2023-03-25T12:31:30.775Z,1.52
2023-03-25T12:34:29.948Z,2.00
2023-03-25T12:37:19.833Z,1.73
2023-03-25T12:39:52.144Z,1.40
2023-03-25T12:42:22.825Z,1.73
2023-03-25T12:45:09.234Z,1.70
2023-03-25T12:47:43.759Z,1.70
2023-03-25T12:50:33.728Z,1.42
2023-03-25T12:53:34.066Z,1.58
2023-03-25T12:56:14.237Z,1.30
2023-03-25T12:59:09.529Z,1.23
2023-03-25T13:01:58.417Z,1.48
2023-03-25T13:04:51.734Z,1.37
2023-03-25T13:07:34.418Z,1.30
2023-03-25T13:10:18.225Z,1.35
2023-03-25T13:12:55.537Z,1.60
2023-03-25T13:15:27.546Z,1.30
2023-03-25T13:18:04.002Z,1.58
2023-03-25T13:20:33.712Z,1.80
2023-03-25T13:23:02.430Z,1.85
2023-03-25T13:25:33.817Z,1.87
2023-03-25T13:28:04.146Z,1.60
2023-03-25T13:30:37.565Z,1.52
2023-03-25T13:33:13.774Z,1.70
2023-03-25T13:35:47.608Z,1.90
2023-03-25T13:38:33.545Z,1.33
2023-03-25T13:41:46.401Z,1.50
2023-03-25T13:44:20.592Z,1.80
2023-03-25T13:47:31.012Z,1.95
2023-03-25T13:50:14.691Z,1.90
2023-03-25T13:52:44.310Z,1.40
2023-03-25T13:55:17.387Z,1.92
2023-03-25T13:58:17.443Z,1.92
2023-03-25T14:01:12.590Z,1.45
2023-03-25T14:04:01.932Z,2.12
2023-03-25T14:06:44.798Z,1.70
2023-03-25T14:09:37.984Z,1.92
2023-03-25T14:12:10.108Z,1.85
2023-03-25T14:14:49.513Z,1.62
2023-03-25T14:17:16.968Z,1.65
2023-03-25T14:19:49.207Z,1.77
2023-03-25T14:22:18.229Z,1.62
2023-03-25T14:24:46.063Z,1.50
2023-03-25T14:27:30.108Z,1.73
2023-03-25T14:30:00.889Z,2.10
2023-03-25T14:32:41.086Z,1.73
2023-03-25T14:35:34.424Z,2.00
2023-03-25T14:38:07.937Z,1.98
2023-03-25T14:40:44.904Z,1.45
2023-03-25T14:43:38.229Z,1.73
2023-03-25T14:46:13.256Z,3.97
2023-03-25T14:48:51.990Z,4.10
2023-03-25T14:51:23.459Z,7.10
2023-03-25T14:53:54.672Z,5.43
2023-03-25T14:56:24.761Z,6.15
2023-03-25T14:58:53.903Z,6.85
2023-03-25T15:01:22.028Z,7.00
2023-03-25T15:03:50.854Z,5.80
2023-03-25T15:06:20.409Z,6.30
2023-03-25T15:08:55.702Z,6.70
2023-03-25T15:11:28.389Z,7.35
2023-03-25T15:13:58.015Z,7.37
2023-03-25T15:16:31.489Z,6.78
2023-03-25T15:19:01.883Z,6.55
2023-03-25T15:21:34.470Z,7.18
2023-03-25T15:24:08.925Z,6.50
2023-03-25T15:26:40.824Z,7.07
2023-03-25T15:29:22.077Z,6.00
2023-03-25T15:31:49.453Z,5.43
2023-03-25T15:34:26.646Z,5.28
2023-03-25T15:37:45.031Z,5.78
2023-03-25T15:40:19.259Z,4.70
2023-03-25T15:42:55.520Z,5.18
2023-03-25T15:45:27.629Z,4.70
2023-03-25T15:48:08.844Z,4.87
2023-03-25T15:50:41.047Z,3.80
2023-03-25T15:53:59.348Z,3.47
2023-03-25T15:56:31.866Z,3.72
2023-03-25T15:59:03.305Z,3.90
2023-03-25T16:01:32.944Z,4.43
2023-03-25T16:04:19.047Z,4.70
2023-03-25T16:06:47.964Z,3.53
2023-03-25T16:09:19.557Z,3.93
2023-03-25T16:11:47.073Z,3.90
2023-03-25T16:14:16.196Z,4.07
2023-03-25T16:16:48.244Z,3.70
2023-03-25T16:19:18.465Z,4.10
2023-03-25T16:21:50.544Z,3.40
2023-03-25T16:24:20.777Z,3.42
2023-03-25T16:26:50.029Z,3.58
2023-03-25T16:29:20.853Z,3.10
2023-03-25T16:31:56.527Z,3.60
2023-03-25T16:34:24.261Z,3.12
2023-03-25T16:36:52.672Z,3.42
2023-03-25T16:39:21.638Z,2.85
2023-03-25T16:41:50.316Z,2.70
2023-03-25T16:44:20.621Z,3.00
2023-03-25T16:46:48.333Z,2.60
2023-03-25T16:49:22.325Z,2.90
2023-03-25T16:51:51.546Z,2.62
2023-03-25T16:54:28.557Z,2.97
2023-03-25T16:56:56.729Z,2.72
2023-03-25T16:59:28.631Z,3.00
2023-03-25T17:01:57.932Z,3.15
2023-03-25T17:04:46.750Z,2.42
2023-03-25T17:07:21.123Z,2.62
2023-03-25T17:09:52.498Z,2.83
2023-03-25T17:12:22.445Z,2.33
2023-03-25T17:14:51.152Z,3.03
2023-03-25T17:17:41.583Z,2.70
2023-03-25T17:20:18.032Z,2.50
2023-03-25T17:23:01.274Z,2.53
2023-03-25T17:25:53.107Z,2.40
2023-03-25T17:28:40.445Z,2.78
2023-03-25T17:31:36.891Z,2.30
2023-03-25T17:34:12.056Z,2.30
2023-03-25T17:36:46.147Z,2.53
2023-03-25T17:39:20.016Z,2.35
2023-03-25T17:41:48.107Z,2.65
2023-03-25T17:44:18.327Z,2.58
2023-03-25T17:46:47.350Z,2.53
2023-03-25T17:49:18.679Z,2.42
2023-03-25T17:51:46.945Z,2.33
2023-03-25T17:54:15.013Z,2.40
2023-03-25T17:56:43.103Z,2.50
2023-03-25T17:59:19.367Z,2.87
2023-03-25T18:01:47.614Z,3.67
2023-03-25T18:04:16.207Z,4.40
2023-03-25T18:06:44.617Z,3.92
2023-03-25T18:09:15.867Z,5.30
2023-03-25T18:11:47.663Z,5.25
2023-03-25T18:14:15.751Z,5.35
2023-03-25T18:16:43.987Z,4.70
2023-03-25T18:19:26.288Z,5.07
2023-03-25T18:21:55.617Z,4.80
2023-03-25T18:26:51.747Z,4.78
2023-03-25T18:29:22.087Z,5.18
2023-03-25T18:31:50.433Z,5.10
2023-03-25T18:34:19.687Z,4.70
2023-03-25T18:36:49.652Z,4.43
2023-03-25T18:41:49.632Z,4.68
2023-03-25T18:44:18.391Z,4.43
2023-03-25T18:46:47.150Z,5.07
2023-03-25T18:49:18.080Z,5.25
2023-03-25T18:51:49.992Z,4.72
2023-03-25T18:54:17.857Z,4.50
2023-03-25T18:56:47.351Z,4.43
2023-03-25T18:59:19.416Z,4.60
2023-03-25T19:01:50.493Z,4.30
2023-03-25T19:04:19.238Z,4.85
2023-03-25T19:06:48.655Z,4.72
2023-03-25T19:09:22.971Z,4.47
2023-03-25T19:11:51.897Z,4.43
2023-03-25T19:14:20.658Z,4.15
2023-03-25T19:17:01.243Z,4.47
2023-03-25T19:19:34.776Z,4.00
2023-03-25T19:22:03.483Z,4.75
2023-03-25T19:24:32.367Z,4.18
2023-03-25T19:27:00.864Z,4.28
2023-03-25T19:29:29.674Z,4.07
2023-03-25T19:31:59.851Z,4.03
2023-03-25T19:34:28.394Z,4.33
2023-03-25T19:37:03.187Z,3.65
2023-03-25T19:39:32.576Z,3.58
2023-03-25T19:42:01.400Z,3.67
2023-03-25T19:44:31.470Z,4.62
2023-03-25T19:49:39.182Z,3.90
2023-03-25T19:52:08.907Z,3.45
2023-03-25T19:54:37.774Z,3.53
2023-03-25T19:57:09.716Z,3.35
2023-03-25T19:59:38.543Z,3.20
2023-03-25T20:02:07.671Z,3.40
2023-03-25T20:07:06.982Z,2.92
2023-03-25T20:09:36.201Z,3.72
2023-03-25T20:12:05.429Z,2.97
2023-03-25T20:14:34.135Z,3.45
2023-03-25T20:17:04.837Z,3.12
2023-03-25T20:19:34.623Z,3.28
2023-03-25T20:22:12.193Z,3.05
2023-03-25T20:24:51.035Z,2.60
2023-03-25T20:27:19.744Z,2.73
2023-03-25T20:29:49.931Z,2.60
2023-03-25T20:32:21.365Z,3.15
2023-03-25T20:34:50.484Z,3.10
2023-03-25T20:37:19.056Z,3.33
2023-03-25T20:39:47.900Z,3.05
2023-03-25T20:42:19.053Z,2.97
2023-03-25T20:44:47.779Z,2.70
2023-03-25T20:47:16.571Z,3.20
2023-03-25T20:49:46.327Z,2.97
2023-03-25T20:52:14.622Z,3.07
2023-03-25T20:54:42.858Z,2.87
2023-03-25T20:57:11.163Z,2.97
2023-03-25T20:59:39.041Z,2.75
2023-03-25T21:02:07.151Z,3.15
2023-03-25T21:04:37.258Z,3.30
2023-03-25T21:09:33.204Z,2.90
2023-03-25T21:12:03.096Z,2.58
2023-03-25T21:14:31.420Z,3.03
2023-03-25T21:16:58.982Z,2.80
2023-03-25T21:19:30.695Z,2.85
2023-03-25T21:21:59.274Z,3.03
2023-03-25T21:24:31.863Z,3.17
2023-03-25T21:26:59.525Z,2.58
2023-03-25T21:29:27.461Z,2.37
2023-03-25T21:31:55.364Z,2.60
2023-03-25T21:34:23.115Z,3.28
2023-03-25T21:36:51.260Z,2.95
2023-03-25T21:39:19.546Z,2.80
2023-03-25T21:41:47.105Z,2.75
2023-03-25T21:44:16.465Z,2.05
2023-03-25T21:46:43.958Z,2.67
2023-03-25T21:49:14.332Z,2.45
2023-03-25T21:51:56.727Z,2.03
2023-03-25T21:54:24.602Z,2.35
2023-03-25T21:56:54.808Z,2.47
2023-03-25T21:59:22.725Z,2.50
2023-03-25T22:01:53.017Z,2.12
2023-03-25T22:04:21.009Z,2.30
2023-03-25T22:06:48.582Z,2.65
2023-03-25T22:09:16.008Z,2.28
2023-03-25T22:11:43.877Z,2.25
2023-03-25T22:14:11.560Z,2.33
2023-03-25T22:16:39.133Z,2.45
2023-03-25T22:19:07.065Z,2.03
2023-03-25T22:21:36.976Z,2.05
2023-03-25T22:24:05.367Z,1.87
2023-03-25T22:26:33.567Z,2.42
2023-03-25T22:29:02.268Z,2.22
2023-03-25T22:31:31.213Z,2.20
2023-03-25T22:34:10.755Z,2.27
2023-03-25T22:36:40.307Z,2.03
2023-03-25T22:39:08.090Z,1.80
2023-03-25T22:41:35.635Z,2.35
2023-03-25T22:44:03.417Z,2.00
2023-03-25T22:46:32.265Z,2.12
2023-03-25T22:48:59.833Z,1.80
2023-03-25T22:51:27.552Z,2.25
2023-03-25T22:53:55.357Z,2.22
2023-03-25T22:56:23.683Z,1.90
2023-03-25T22:58:54.232Z,2.40
2023-03-25T23:01:23.991Z,2.03
2023-03-25T23:03:52.212Z,2.08
2023-03-25T23:06:19.746Z,2.20
2023-03-25T23:08:47.452Z,2.05
2023-03-25T23:11:25.488Z,1.90
2023-03-25T23:13:55.403Z,2.22
2023-03-25T23:16:24.767Z,2.28
2023-03-25T23:18:52.344Z,2.03
2023-03-25T23:21:28.551Z,1.98
2023-03-25T23:23:58.118Z,1.77
2023-03-25T23:26:26.956Z,1.70
2023-03-25T23:29:00.273Z,1.73
2023-03-25T23:31:29.989Z,2.37
2023-03-25T23:33:58.413Z,1.80
2023-03-25T23:36:26.176Z,1.85
2023-03-25T23:38:54.229Z,2.33
2023-03-25T23:41:25.893Z,1.98
2023-03-25T23:43:54.222Z,1.80
2023-03-25T23:46:22.158Z,2.00
2023-03-25T23:48:49.651Z,2.08
2023-03-25T23:51:18.209Z,1.67
2023-03-25T23:53:47.079Z,1.50
2023-03-25T23:56:15.827Z,1.80
2023-03-25T23:58:44.043Z,1.63
